sensor_id;sensor_type;location;lat;lon;timestamp;pressure;altitude;pressure_sealevel;temperature;humidity
28027;BME280;15344;52.342;-1.290;2022-09-09T00:01:07;98898.13;;;21.21;68.46
28027;BME280;15344;52.342;-1.290;2022-09-09T00:03:30;98901.18;;;20.47;72.05
28027;BME280;15344;52.342;-1.290;2022-09-09T00:05:59;98902.30;;;20.64;71.55
28027;BME280;15344;52.342;-1.290;2022-09-09T00:08:20;98904.10;;;20.17;73.21
28027;BME280;15344;52.342;-1.290;2022-09-09T00:10:42;98902.76;;;20.60;71.35
28027;BME280;15344;52.342;-1.290;2022-09-09T00:13:15;98900.59;;;19.76;75.63
28027;BME280;15344;52.342;-1.290;2022-09-09T00:15:36;98900.67;;;20.77;71.61
28027;BME280;15344;52.342;-1.290;2022-09-09T00:18:05;98902.18;;;20.31;73.41
28027;BME280;15344;52.342;-1.290;2022-09-09T00:20:29;98897.86;;;20.71;72.46
28027;BME280;15344;52.342;-1.290;2022-09-09T00:22:55;98899.20;;;21.17;70.95
28027;BME280;15344;52.342;-1.290;2022-09-09T00:25:20;98900.21;;;21.45;69.61
28027;BME280;15344;52.342;-1.290;2022-09-09T00:27:44;98897.12;;;20.76;72.09
28027;BME280;15344;52.342;-1.290;2022-09-09T00:30:14;98897.15;;;20.88;72.14
28027;BME280;15344;52.342;-1.290;2022-09-09T00:32:30;98897.76;;;21.12;70.04
28027;BME280;15344;52.342;-1.290;2022-09-09T00:34:58;98897.72;;;21.06;70.88
28027;BME280;15344;52.342;-1.290;2022-09-09T00:37:23;98898.33;;;20.40;71.45
28027;BME280;15344;52.342;-1.290;2022-09-09T00:39:47;98896.89;;;20.75;69.82
28027;BME280;15344;52.342;-1.290;2022-09-09T00:42:15;98896.48;;;21.03;68.93
28027;BME280;15344;52.342;-1.290;2022-09-09T00:44:37;98898.21;;;21.48;68.19
28027;BME280;15344;52.342;-1.290;2022-09-09T00:47:12;98897.99;;;20.58;71.92
28027;BME280;15344;52.342;-1.290;2022-09-09T00:49:37;98901.90;;;20.02;74.19
28027;BME280;15344;52.342;-1.290;2022-09-09T00:52:00;98901.63;;;20.60;72.33
28027;BME280;15344;52.342;-1.290;2022-09-09T00:54:25;98901.21;;;20.34;72.70
28027;BME280;15344;52.342;-1.290;2022-09-09T00:56:47;98899.76;;;20.73;71.09
28027;BME280;15344;52.342;-1.290;2022-09-09T00:59:16;98902.63;;;20.95;70.26
28027;BME280;15344;52.342;-1.290;2022-09-09T01:01:33;98903.10;;;20.55;70.72
28027;BME280;15344;52.342;-1.290;2022-09-09T01:03:58;98906.43;;;20.63;71.29
28027;BME280;15344;52.342;-1.290;2022-09-09T01:06:29;98905.00;;;20.42;71.96
28027;BME280;15344;52.342;-1.290;2022-09-09T01:11:21;98906.59;;;20.47;72.90
28027;BME280;15344;52.342;-1.290;2022-09-09T01:13:42;98906.84;;;20.51;72.87
28027;BME280;15344;52.342;-1.290;2022-09-09T01:16:09;98904.98;;;20.76;72.03
28027;BME280;15344;52.342;-1.290;2022-09-09T01:18:34;98903.71;;;20.53;73.55
28027;BME280;15344;52.342;-1.290;2022-09-09T01:21:04;98907.17;;;20.81;72.28
28027;BME280;15344;52.342;-1.290;2022-09-09T01:23:30;98905.45;;;21.05;70.89
28027;BME280;15344;52.342;-1.290;2022-09-09T01:28:15;98905.32;;;20.68;72.55
28027;BME280;15344;52.342;-1.290;2022-09-09T01:30:39;98906.77;;;20.53;71.68
28027;BME280;15344;52.342;-1.290;2022-09-09T01:33:02;98908.06;;;20.82;71.65
28027;BME280;15344;52.342;-1.290;2022-09-09T01:35:37;98911.69;;;20.74;72.08
28027;BME280;15344;52.342;-1.290;2022-09-09T01:37:52;98910.19;;;20.72;70.34
28027;BME280;15344;52.342;-1.290;2022-09-09T01:40:17;98910.49;;;19.90;74.85
28027;BME280;15344;52.342;-1.290;2022-09-09T01:42:42;98907.46;;;20.79;71.46
28027;BME280;15344;52.342;-1.290;2022-09-09T01:45:08;98910.60;;;20.39;71.95
28027;BME280;15344;52.342;-1.290;2022-09-09T01:47:34;98910.02;;;20.31;72.76
28027;BME280;15344;52.342;-1.290;2022-09-09T01:49:59;98904.70;;;20.80;72.32
28027;BME280;15344;52.342;-1.290;2022-09-09T01:52:25;98904.99;;;20.99;71.38
28027;BME280;15344;52.342;-1.290;2022-09-09T01:54:49;98905.80;;;20.57;72.89
28027;BME280;15344;52.342;-1.290;2022-09-09T01:57:19;98909.01;;;20.48;72.98
28027;BME280;15344;52.342;-1.290;2022-09-09T01:59:47;98908.31;;;20.84;72.40
28027;BME280;15344;52.342;-1.290;2022-09-09T02:02:11;98912.10;;;21.27;71.27
28027;BME280;15344;52.342;-1.290;2022-09-09T02:04:38;98911.69;;;21.26;71.17
28027;BME280;15344;52.342;-1.290;2022-09-09T02:06:56;98910.85;;;20.67;73.81
28027;BME280;15344;52.342;-1.290;2022-09-09T02:09:23;98911.85;;;21.21;70.72
28027;BME280;15344;52.342;-1.290;2022-09-09T02:11:49;98914.67;;;21.09;71.59
28027;BME280;15344;52.342;-1.290;2022-09-09T02:14:14;98916.32;;;21.14;72.39
28027;BME280;15344;52.342;-1.290;2022-09-09T02:16:40;98915.94;;;21.54;70.97
28027;BME280;15344;52.342;-1.290;2022-09-09T02:19:06;98916.92;;;21.71;69.99
28027;BME280;15344;52.342;-1.290;2022-09-09T02:21:29;98916.96;;;21.24;71.48
28027;BME280;15344;52.342;-1.290;2022-09-09T02:23:53;98913.78;;;21.08;71.17
28027;BME280;15344;52.342;-1.290;2022-09-09T02:26:19;98914.91;;;21.27;70.94
28027;BME280;15344;52.342;-1.290;2022-09-09T02:28:43;98914.41;;;21.10;71.53
28027;BME280;15344;52.342;-1.290;2022-09-09T02:31:08;98916.08;;;20.73;72.67
28027;BME280;15344;52.342;-1.290;2022-09-09T02:33:38;98917.07;;;20.09;75.12
28027;BME280;15344;52.342;-1.290;2022-09-09T02:36:00;98919.11;;;20.49;73.32
28027;BME280;15344;52.342;-1.290;2022-09-09T02:38:26;98917.37;;;20.86;71.96
28027;BME280;15344;52.342;-1.290;2022-09-09T02:40:50;98918.46;;;20.29;74.17
28027;BME280;15344;52.342;-1.290;2022-09-09T02:43:15;98919.74;;;20.75;72.37
28027;BME280;15344;52.342;-1.290;2022-09-09T02:45:44;98922.97;;;19.03;77.78
28027;BME280;15344;52.342;-1.290;2022-09-09T02:48:11;98922.89;;;20.44;73.91
28027;BME280;15344;52.342;-1.290;2022-09-09T02:50:33;98923.93;;;19.42;76.76
28027;BME280;15344;52.342;-1.290;2022-09-09T02:53:05;98922.01;;;20.25;74.35
28027;BME280;15344;52.342;-1.290;2022-09-09T02:55:29;98923.71;;;20.40;74.39
28027;BME280;15344;52.342;-1.290;2022-09-09T02:57:48;98921.04;;;20.90;72.28
28027;BME280;15344;52.342;-1.290;2022-09-09T03:00:14;98926.42;;;20.30;74.80
28027;BME280;15344;52.342;-1.290;2022-09-09T03:02:39;98926.24;;;20.23;74.08
28027;BME280;15344;52.342;-1.290;2022-09-09T03:05:05;98932.63;;;20.28;73.83
28027;BME280;15344;52.342;-1.290;2022-09-09T03:07:30;98934.68;;;19.26;77.55
28027;BME280;15344;52.342;-1.290;2022-09-09T03:09:55;98934.79;;;20.67;72.57
28027;BME280;15344;52.342;-1.290;2022-09-09T03:12:20;98935.93;;;19.87;75.25
28027;BME280;15344;52.342;-1.290;2022-09-09T03:14:47;98938.74;;;18.90;80.12
28027;BME280;15344;52.342;-1.290;2022-09-09T03:17:12;98942.15;;;19.54;78.85
28027;BME280;15344;52.342;-1.290;2022-09-09T03:19:38;98944.67;;;18.38;83.42
28027;BME280;15344;52.342;-1.290;2022-09-09T03:22:03;98941.03;;;18.58;83.64
28027;BME280;15344;52.342;-1.290;2022-09-09T03:24:29;98941.86;;;19.72;80.75
28027;BME280;15344;52.342;-1.290;2022-09-09T03:26:54;98942.82;;;19.12;81.68
28027;BME280;15344;52.342;-1.290;2022-09-09T03:29:19;98940.81;;;18.03;86.40
28027;BME280;15344;52.342;-1.290;2022-09-09T03:31:45;98936.55;;;18.66;83.84
28027;BME280;15344;52.342;-1.290;2022-09-09T03:34:11;98934.34;;;18.27;84.81
28027;BME280;15344;52.342;-1.290;2022-09-09T03:36:37;98940.37;;;18.17;87.98
28027;BME280;15344;52.342;-1.290;2022-09-09T03:39:02;98942.54;;;18.04;87.82
28027;BME280;15344;52.342;-1.290;2022-09-09T03:41:27;98942.81;;;18.11;88.31
28027;BME280;15344;52.342;-1.290;2022-09-09T03:43:52;98943.91;;;18.97;84.23
28027;BME280;15344;52.342;-1.290;2022-09-09T03:46:17;98943.25;;;18.60;85.74
28027;BME280;15344;52.342;-1.290;2022-09-09T03:48:42;98946.83;;;19.36;82.63
28027;BME280;15344;52.342;-1.290;2022-09-09T03:51:07;98950.51;;;18.67;84.97
28027;BME280;15344;52.342;-1.290;2022-09-09T03:53:33;98955.40;;;19.02;85.26
28027;BME280;15344;52.342;-1.290;2022-09-09T03:55:58;98960.90;;;17.09;100.00
28027;BME280;15344;52.342;-1.290;2022-09-09T03:58:23;98959.78;;;16.28;100.00
28027;BME280;15344;52.342;-1.290;2022-09-09T04:00:55;98965.88;;;18.26;100.00
28027;BME280;15344;52.342;-1.290;2022-09-09T04:03:14;98968.77;;;19.02;98.99
28027;BME280;15344;52.342;-1.290;2022-09-09T04:05:40;98971.87;;;17.55;100.00
28027;BME280;15344;52.342;-1.290;2022-09-09T04:08:05;98969.85;;;18.77;99.60
28027;BME280;15344;52.342;-1.290;2022-09-09T04:10:30;98977.27;;;17.73;92.19
28027;BME280;15344;52.342;-1.290;2022-09-09T04:12:56;98980.29;;;17.67;92.99
28027;BME280;15344;52.342;-1.290;2022-09-09T04:15:22;98977.47;;;17.63;93.37
28027;BME280;15344;52.342;-1.290;2022-09-09T04:17:48;98977.16;;;17.62;92.74
28027;BME280;15344;52.342;-1.290;2022-09-09T04:20:13;98976.16;;;18.49;90.04
28027;BME280;15344;52.342;-1.290;2022-09-09T04:22:39;98974.86;;;16.61;99.77
28027;BME280;15344;52.342;-1.290;2022-09-09T04:25:06;98974.85;;;18.27;91.83
28027;BME280;15344;52.342;-1.290;2022-09-09T04:27:31;98976.79;;;18.53;89.27
28027;BME280;15344;52.342;-1.290;2022-09-09T04:29:56;98978.06;;;18.44;89.18
28027;BME280;15344;52.342;-1.290;2022-09-09T04:32:22;98985.89;;;17.40;93.08
28027;BME280;15344;52.342;-1.290;2022-09-09T04:34:47;98988.29;;;17.29;96.06
28027;BME280;15344;52.342;-1.290;2022-09-09T04:37:13;98984.23;;;17.27;97.41
28027;BME280;15344;52.342;-1.290;2022-09-09T04:39:38;98989.65;;;17.55;94.86
28027;BME280;15344;52.342;-1.290;2022-09-09T04:42:04;98989.48;;;16.59;99.44
28027;BME280;15344;52.342;-1.290;2022-09-09T04:44:29;98994.35;;;17.76;93.28
28027;BME280;15344;52.342;-1.290;2022-09-09T04:46:56;98994.12;;;17.12;96.94
28027;BME280;15344;52.342;-1.290;2022-09-09T04:49:20;98999.07;;;17.77;93.35
28027;BME280;15344;52.342;-1.290;2022-09-09T04:51:46;98999.65;;;17.37;93.29
28027;BME280;15344;52.342;-1.290;2022-09-09T04:54:11;99002.34;;;18.30;91.70
28027;BME280;15344;52.342;-1.290;2022-09-09T04:56:37;99002.25;;;18.19;90.72
28027;BME280;15344;52.342;-1.290;2022-09-09T04:59:02;99002.15;;;17.58;90.26
28027;BME280;15344;52.342;-1.290;2022-09-09T05:01:28;99004.52;;;17.27;93.56
28027;BME280;15344;52.342;-1.290;2022-09-09T05:03:53;99006.78;;;18.11;90.47
28027;BME280;15344;52.342;-1.290;2022-09-09T05:06:20;99005.66;;;18.01;89.81
28027;BME280;15344;52.342;-1.290;2022-09-09T05:08:44;99003.93;;;18.70;86.45
28027;BME280;15344;52.342;-1.290;2022-09-09T05:11:15;99006.52;;;19.40;83.64
28027;BME280;15344;52.342;-1.290;2022-09-09T05:13:35;99010.45;;;17.96;88.87
28027;BME280;15344;52.342;-1.290;2022-09-09T05:15:59;99008.31;;;17.11;94.87
28027;BME280;15344;52.342;-1.290;2022-09-09T05:18:25;99010.78;;;18.38;89.38
28027;BME280;15344;52.342;-1.290;2022-09-09T05:20:50;99011.12;;;18.29;88.62
28027;BME280;15344;52.342;-1.290;2022-09-09T05:23:16;99013.12;;;18.84;85.80
28027;BME280;15344;52.342;-1.290;2022-09-09T05:25:43;99016.00;;;17.98;86.55
28027;BME280;15344;52.342;-1.290;2022-09-09T05:28:07;99020.16;;;17.66;90.41
28027;BME280;15344;52.342;-1.290;2022-09-09T05:30:33;99018.99;;;18.00;90.73
28027;BME280;15344;52.342;-1.290;2022-09-09T05:32:58;99016.18;;;19.18;83.97
28027;BME280;15344;52.342;-1.290;2022-09-09T05:35:23;99017.36;;;18.72;85.18
28027;BME280;15344;52.342;-1.290;2022-09-09T05:37:48;99020.36;;;19.14;85.25
28027;BME280;15344;52.342;-1.290;2022-09-09T05:40:14;99021.05;;;19.80;82.01
28027;BME280;15344;52.342;-1.290;2022-09-09T05:42:40;99021.53;;;19.37;83.46
28027;BME280;15344;52.342;-1.290;2022-09-09T05:45:06;99023.15;;;18.95;85.43
28027;BME280;15344;52.342;-1.290;2022-09-09T05:47:31;99023.45;;;19.67;83.36
28027;BME280;15344;52.342;-1.290;2022-09-09T05:49:56;99024.39;;;19.12;83.27
28027;BME280;15344;52.342;-1.290;2022-09-09T05:52:21;99026.72;;;19.56;81.73
28027;BME280;15344;52.342;-1.290;2022-09-09T05:54:47;99029.72;;;20.19;79.18
28027;BME280;15344;52.342;-1.290;2022-09-09T05:57:12;99031.08;;;20.25;78.98
28027;BME280;15344;52.342;-1.290;2022-09-09T05:59:38;99035.23;;;20.55;77.68
28027;BME280;15344;52.342;-1.290;2022-09-09T06:02:03;99038.18;;;20.42;78.20
28027;BME280;15344;52.342;-1.290;2022-09-09T06:04:29;99039.00;;;19.86;79.38
28027;BME280;15344;52.342;-1.290;2022-09-09T06:06:53;99039.41;;;19.55;81.12
28027;BME280;15344;52.342;-1.290;2022-09-09T06:09:19;99044.12;;;20.02;79.54
28027;BME280;15344;52.342;-1.290;2022-09-09T06:11:44;99045.92;;;20.56;77.74
28027;BME280;15344;52.342;-1.290;2022-09-09T06:14:09;99048.17;;;20.53;77.79
28027;BME280;15344;52.342;-1.290;2022-09-09T06:16:35;99045.44;;;21.00;76.66
28027;BME280;15344;52.342;-1.290;2022-09-09T06:19:01;99049.17;;;20.66;76.53
28027;BME280;15344;52.342;-1.290;2022-09-09T06:21:27;99052.38;;;20.92;76.88
28027;BME280;15344;52.342;-1.290;2022-09-09T06:23:51;99053.57;;;20.30;79.09
28027;BME280;15344;52.342;-1.290;2022-09-09T06:26:18;99056.01;;;20.93;77.07
28027;BME280;15344;52.342;-1.290;2022-09-09T06:28:42;99059.02;;;20.99;75.86
28027;BME280;15344;52.342;-1.290;2022-09-09T06:31:08;99061.27;;;20.46;78.18
28027;BME280;15344;52.342;-1.290;2022-09-09T06:33:33;99062.76;;;20.06;79.45
28027;BME280;15344;52.342;-1.290;2022-09-09T06:35:57;99064.02;;;20.79;77.01
28027;BME280;15344;52.342;-1.290;2022-09-09T06:38:23;99066.89;;;19.98;79.69
28027;BME280;15344;52.342;-1.290;2022-09-09T06:40:51;99069.51;;;20.74;77.91
28027;BME280;15344;52.342;-1.290;2022-09-09T06:43:13;99071.31;;;21.02;77.49
28027;BME280;15344;52.342;-1.290;2022-09-09T06:45:38;99074.48;;;20.68;77.58
28027;BME280;15344;52.342;-1.290;2022-09-09T06:48:04;99075.62;;;19.95;80.08
28027;BME280;15344;52.342;-1.290;2022-09-09T06:50:29;99078.43;;;20.41;77.65
28027;BME280;15344;52.342;-1.290;2022-09-09T06:52:54;99080.01;;;21.22;76.37
28027;BME280;15344;52.342;-1.290;2022-09-09T06:55:20;99083.14;;;21.65;75.00
28027;BME280;15344;52.342;-1.290;2022-09-09T06:57:45;99085.36;;;20.57;78.45
28027;BME280;15344;52.342;-1.290;2022-09-09T07:00:12;99085.97;;;20.48;78.74
28027;BME280;15344;52.342;-1.290;2022-09-09T07:02:36;99087.79;;;20.76;78.15
28027;BME280;15344;52.342;-1.290;2022-09-09T07:05:02;99090.99;;;20.95;77.87
28027;BME280;15344;52.342;-1.290;2022-09-09T07:07:28;99091.49;;;20.81;77.33
28027;BME280;15344;52.342;-1.290;2022-09-09T07:09:53;99092.65;;;20.39;78.80
28027;BME280;15344;52.342;-1.290;2022-09-09T07:12:18;99092.57;;;20.96;77.95
28027;BME280;15344;52.342;-1.290;2022-09-09T07:14:44;99095.61;;;21.40;77.05
28027;BME280;15344;52.342;-1.290;2022-09-09T07:17:09;99094.27;;;20.78;79.53
28027;BME280;15344;52.342;-1.290;2022-09-09T07:19:34;99099.12;;;21.26;78.61
28027;BME280;15344;52.342;-1.290;2022-09-09T07:22:00;99101.36;;;22.15;75.12
28027;BME280;15344;52.342;-1.290;2022-09-09T07:24:25;99099.03;;;21.39;77.15
28027;BME280;15344;52.342;-1.290;2022-09-09T07:26:51;99100.10;;;21.96;74.70
28027;BME280;15344;52.342;-1.290;2022-09-09T07:29:16;99103.48;;;20.81;77.94
28027;BME280;15344;52.342;-1.290;2022-09-09T07:31:42;99104.55;;;21.21;77.87
28027;BME280;15344;52.342;-1.290;2022-09-09T07:34:07;99108.11;;;19.91;81.36
28027;BME280;15344;52.342;-1.290;2022-09-09T07:36:33;99111.35;;;21.36;77.36
28027;BME280;15344;52.342;-1.290;2022-09-09T07:39:00;99108.34;;;21.06;77.46
28027;BME280;15344;52.342;-1.290;2022-09-09T07:41:24;99111.88;;;21.42;76.76
28027;BME280;15344;52.342;-1.290;2022-09-09T07:43:49;99112.86;;;20.83;77.08
28027;BME280;15344;52.342;-1.290;2022-09-09T07:46:15;99116.84;;;21.83;75.92
28027;BME280;15344;52.342;-1.290;2022-09-09T07:48:52;99120.28;;;21.79;76.75
28027;BME280;15344;52.342;-1.290;2022-09-09T07:51:08;99121.94;;;21.28;77.09
28027;BME280;15344;52.342;-1.290;2022-09-09T07:53:30;99120.99;;;21.37;77.33
28027;BME280;15344;52.342;-1.290;2022-09-09T07:56:02;99122.35;;;22.31;75.51
28027;BME280;15344;52.342;-1.290;2022-09-09T07:58:21;99126.49;;;22.81;75.35
28027;BME280;15344;52.342;-1.290;2022-09-09T08:00:46;99126.80;;;21.60;75.21
28027;BME280;15344;52.342;-1.290;2022-09-09T08:03:11;99133.13;;;21.57;75.99
28027;BME280;15344;52.342;-1.290;2022-09-09T08:05:37;99132.68;;;22.96;72.82
28027;BME280;15344;52.342;-1.290;2022-09-09T08:08:02;99132.58;;;20.82;80.20
28027;BME280;15344;52.342;-1.290;2022-09-09T08:10:28;99134.10;;;21.48;76.90
28027;BME280;15344;52.342;-1.290;2022-09-09T08:12:54;99133.42;;;22.41;74.21
28027;BME280;15344;52.342;-1.290;2022-09-09T08:15:19;99136.81;;;21.76;73.90
28027;BME280;15344;52.342;-1.290;2022-09-09T08:17:45;99139.48;;;20.33;80.43
28027;BME280;15344;52.342;-1.290;2022-09-09T08:20:10;99138.57;;;19.97;82.62
28027;BME280;15344;52.342;-1.290;2022-09-09T08:22:36;99144.86;;;20.71;79.73
28027;BME280;15344;52.342;-1.290;2022-09-09T08:25:01;99147.48;;;21.90;75.90
28027;BME280;15344;52.342;-1.290;2022-09-09T08:27:26;99144.64;;;22.23;75.43
28027;BME280;15344;52.342;-1.290;2022-09-09T08:29:52;99149.99;;;22.08;75.50
28027;BME280;15344;52.342;-1.290;2022-09-09T08:32:18;99152.90;;;22.16;74.98
28027;BME280;15344;52.342;-1.290;2022-09-09T08:34:43;99153.99;;;20.48;81.69
28027;BME280;15344;52.342;-1.290;2022-09-09T08:37:09;99155.83;;;21.15;78.72
28027;BME280;15344;52.342;-1.290;2022-09-09T08:39:34;99158.68;;;21.57;79.47
28027;BME280;15344;52.342;-1.290;2022-09-09T08:44:34;99164.74;;;22.69;74.24
28027;BME280;15344;52.342;-1.290;2022-09-09T08:46:57;99167.27;;;22.93;74.72
28027;BME280;15344;52.342;-1.290;2022-09-09T08:49:28;99166.06;;;23.99;70.75
28027;BME280;15344;52.342;-1.290;2022-09-09T08:51:41;99168.12;;;22.93;72.92
28027;BME280;15344;52.342;-1.290;2022-09-09T08:54:08;99173.99;;;23.27;68.68
28027;BME280;15344;52.342;-1.290;2022-09-09T08:56:32;99172.25;;;22.07;71.96
28027;BME280;15344;52.342;-1.290;2022-09-09T08:59:00;99179.59;;;23.45;69.41
28027;BME280;15344;52.342;-1.290;2022-09-09T09:01:30;99178.44;;;22.44;70.22
28027;BME280;15344;52.342;-1.290;2022-09-09T09:03:56;99183.34;;;23.56;67.23
28027;BME280;15344;52.342;-1.290;2022-09-09T09:06:23;99184.01;;;24.06;68.58
28027;BME280;15344;52.342;-1.290;2022-09-09T09:08:44;99183.17;;;25.00;65.90
28027;BME280;15344;52.342;-1.290;2022-09-09T09:11:04;99186.88;;;25.25;63.22
28027;BME280;15344;52.342;-1.290;2022-09-09T09:13:34;99188.53;;;24.99;61.78
28027;BME280;15344;52.342;-1.290;2022-09-09T09:16:00;99189.22;;;24.50;62.71
28027;BME280;15344;52.342;-1.290;2022-09-09T09:18:21;99194.21;;;26.00;57.49
28027;BME280;15344;52.342;-1.290;2022-09-09T09:20:54;99199.59;;;25.43;59.22
28027;BME280;15344;52.342;-1.290;2022-09-09T09:23:19;99203.90;;;25.46;59.30
28027;BME280;15344;52.342;-1.290;2022-09-09T09:25:40;99206.81;;;25.21;57.67
28027;BME280;15344;52.342;-1.290;2022-09-09T09:28:11;99210.91;;;26.30;55.67
28027;BME280;15344;52.342;-1.290;2022-09-09T09:30:31;99214.73;;;23.66;62.02
28027;BME280;15344;52.342;-1.290;2022-09-09T09:32:56;99215.99;;;25.48;56.98
28027;BME280;15344;52.342;-1.290;2022-09-09T09:35:19;99221.97;;;23.02;64.15
28027;BME280;15344;52.342;-1.290;2022-09-09T09:37:44;99222.09;;;24.35;62.15
28027;BME280;15344;52.342;-1.290;2022-09-09T09:40:12;99226.72;;;23.67;63.43
28027;BME280;15344;52.342;-1.290;2022-09-09T09:42:35;99223.00;;;24.82;62.08
28027;BME280;15344;52.342;-1.290;2022-09-09T09:45:07;99230.67;;;24.38;62.70
28027;BME280;15344;52.342;-1.290;2022-09-09T09:47:26;99234.43;;;22.74;67.26
28027;BME280;15344;52.342;-1.290;2022-09-09T09:49:52;99232.86;;;23.46;66.17
28027;BME280;15344;52.342;-1.290;2022-09-09T09:52:21;99232.05;;;23.21;66.54
28027;BME280;15344;52.342;-1.290;2022-09-09T09:54:42;99238.03;;;23.46;66.60
28027;BME280;15344;52.342;-1.290;2022-09-09T09:57:10;99236.21;;;22.95;67.30
28027;BME280;15344;52.342;-1.290;2022-09-09T09:59:35;99239.00;;;22.11;69.90
28027;BME280;15344;52.342;-1.290;2022-09-09T10:04:23;99241.35;;;22.71;68.16
28027;BME280;15344;52.342;-1.290;2022-09-09T10:06:50;99245.05;;;23.44;64.57
28027;BME280;15344;52.342;-1.290;2022-09-09T10:09:23;99248.07;;;23.04;66.80
28027;BME280;15344;52.342;-1.290;2022-09-09T10:11:46;99250.68;;;23.18;67.13
28027;BME280;15344;52.342;-1.290;2022-09-09T10:14:11;99252.47;;;23.77;66.26
28027;BME280;15344;52.342;-1.290;2022-09-09T10:16:43;99255.84;;;24.03;65.85
28027;BME280;15344;52.342;-1.290;2022-09-09T10:19:00;99253.05;;;22.58;70.85
28027;BME280;15344;52.342;-1.290;2022-09-09T10:21:32;99258.72;;;23.67;68.25
28027;BME280;15344;52.342;-1.290;2022-09-09T10:23:58;99254.83;;;23.53;67.47
28027;BME280;15344;52.342;-1.290;2022-09-09T10:26:21;99255.55;;;24.61;67.96
28027;BME280;15344;52.342;-1.290;2022-09-09T10:28:53;99248.09;;;24.88;62.91
28027;BME280;15344;52.342;-1.290;2022-09-09T10:31:11;99250.09;;;24.70;62.84
28027;BME280;15344;52.342;-1.290;2022-09-09T10:33:32;99253.11;;;25.86;59.51
28027;BME280;15344;52.342;-1.290;2022-09-09T10:35:58;99256.47;;;23.87;62.52
28027;BME280;15344;52.342;-1.290;2022-09-09T10:38:24;99255.68;;;24.60;59.92
28027;BME280;15344;52.342;-1.290;2022-09-09T10:43:18;99258.61;;;24.82;57.00
28027;BME280;15344;52.342;-1.290;2022-09-09T10:45:44;99259.60;;;26.26;55.20
28027;BME280;15344;52.342;-1.290;2022-09-09T10:48:14;99257.12;;;25.64;52.27
28027;BME280;15344;52.342;-1.290;2022-09-09T10:50:39;99258.71;;;25.93;56.18
28027;BME280;15344;52.342;-1.290;2022-09-09T10:53:00;99257.41;;;26.81;52.46
28027;BME280;15344;52.342;-1.290;2022-09-09T10:55:20;99258.09;;;25.63;54.27
28027;BME280;15344;52.342;-1.290;2022-09-09T10:57:46;99260.93;;;26.21;53.31
28027;BME280;15344;52.342;-1.290;2022-09-09T11:00:18;99266.35;;;24.98;55.23
28027;BME280;15344;52.342;-1.290;2022-09-09T11:02:36;99265.96;;;24.47;57.30
28027;BME280;15344;52.342;-1.290;2022-09-09T11:05:05;99271.65;;;24.88;57.03
28027;BME280;15344;52.342;-1.290;2022-09-09T11:07:32;99278.25;;;23.80;60.51
28027;BME280;15344;52.342;-1.290;2022-09-09T11:09:58;99269.76;;;24.39;58.80
28027;BME280;15344;52.342;-1.290;2022-09-09T11:12:19;99270.05;;;24.75;58.42
28027;BME280;15344;52.342;-1.290;2022-09-09T11:14:47;99273.35;;;23.46;61.76
28027;BME280;15344;52.342;-1.290;2022-09-09T11:17:12;99272.51;;;24.34;62.18
28027;BME280;15344;52.342;-1.290;2022-09-09T11:19:36;99270.79;;;24.63;61.86
28027;BME280;15344;52.342;-1.290;2022-09-09T11:22:02;99272.71;;;23.60;64.48
28027;BME280;15344;52.342;-1.290;2022-09-09T11:24:29;99268.83;;;25.12;60.34
28027;BME280;15344;52.342;-1.290;2022-09-09T11:26:53;99273.83;;;25.45;62.26
28027;BME280;15344;52.342;-1.290;2022-09-09T11:29:26;99271.20;;;25.08;62.38
28027;BME280;15344;52.342;-1.290;2022-09-09T11:31:46;99277.65;;;25.21;58.26
28027;BME280;15344;52.342;-1.290;2022-09-09T11:34:17;99276.32;;;24.59;60.06
28027;BME280;15344;52.342;-1.290;2022-09-09T11:36:44;99272.71;;;24.77;60.50
28027;BME280;15344;52.342;-1.290;2022-09-09T11:39:05;99272.51;;;25.41;59.14
28027;BME280;15344;52.342;-1.290;2022-09-09T11:41:22;99274.60;;;24.34;59.40
28027;BME280;15344;52.342;-1.290;2022-09-09T11:43:49;99271.67;;;25.54;56.30
28027;BME280;15344;52.342;-1.290;2022-09-09T11:46:15;99271.00;;;25.85;53.60
28027;BME280;15344;52.342;-1.290;2022-09-09T11:48:40;99271.73;;;25.06;54.83
28027;BME280;15344;52.342;-1.290;2022-09-09T11:51:07;99275.62;;;24.81;54.35
28027;BME280;15344;52.342;-1.290;2022-09-09T11:53:29;99279.19;;;25.01;54.25
28027;BME280;15344;52.342;-1.290;2022-09-09T11:56:01;99279.18;;;25.10;54.00
28027;BME280;15344;52.342;-1.290;2022-09-09T11:58:22;99280.01;;;26.01;52.64
28027;BME280;15344;52.342;-1.290;2022-09-09T12:00:48;99281.26;;;25.77;53.57
28027;BME280;15344;52.342;-1.290;2022-09-09T12:05:41;99284.01;;;24.21;57.10
28027;BME280;15344;52.342;-1.290;2022-09-09T12:08:04;99278.37;;;24.32;56.73
28027;BME280;15344;52.342;-1.290;2022-09-09T12:10:31;99285.09;;;24.06;58.60
28027;BME280;15344;52.342;-1.290;2022-09-09T12:12:55;99284.98;;;24.55;61.55
28027;BME280;15344;52.342;-1.290;2022-09-09T12:15:24;99272.97;;;25.24;59.73
28027;BME280;15344;52.342;-1.290;2022-09-09T12:17:47;99277.84;;;25.05;58.91
28027;BME280;15344;52.342;-1.290;2022-09-09T12:20:15;99276.57;;;26.15;57.56
28027;BME280;15344;52.342;-1.290;2022-09-09T12:25:12;99276.99;;;25.49;55.98
28027;BME280;15344;52.342;-1.290;2022-09-09T12:27:35;99276.67;;;24.68;56.32
28027;BME280;15344;52.342;-1.290;2022-09-09T12:30:00;99284.50;;;24.28;58.19
28027;BME280;15344;52.342;-1.290;2022-09-09T12:32:24;99285.87;;;23.29;58.19
28027;BME280;15344;52.342;-1.290;2022-09-09T12:34:49;99287.25;;;24.15;57.48
28027;BME280;15344;52.342;-1.290;2022-09-09T12:37:17;99287.73;;;22.35;65.61
28027;BME280;15344;52.342;-1.290;2022-09-09T12:39:40;99286.97;;;24.32;59.42
28027;BME280;15344;52.342;-1.290;2022-09-09T12:42:03;99289.56;;;23.72;58.75
28027;BME280;15344;52.342;-1.290;2022-09-09T12:44:28;99289.39;;;24.44;57.75
28027;BME280;15344;52.342;-1.290;2022-09-09T12:46:53;99288.55;;;25.04;55.84
28027;BME280;15344;52.342;-1.290;2022-09-09T12:49:28;99289.84;;;24.76;58.40
28027;BME280;15344;52.342;-1.290;2022-09-09T12:51:44;99286.38;;;25.06;57.43
28027;BME280;15344;52.342;-1.290;2022-09-09T12:54:13;99289.72;;;25.64;56.84
28027;BME280;15344;52.342;-1.290;2022-09-09T12:56:37;99292.80;;;25.39;56.54